Time;durP1;ratioP1;P1;durP2;ratioP2;P2;SDS_P1;SDS_P2;PMS_P1;PMS_P2;Temp;Humidity;BMP_temperature;BMP_pressure;BME280_temperature;BME280_humidity;BME280_pressure;Samples;Min_cycle;Max_cycle;Signal;HPM_P1;HPM_P2
2024/03/23 00:01:47;;;;;;;8.60;4.10;;;8.40;99.90;;;;;;5054124;28;20533;-82
2024/03/23 00:04:14;;;;;;;9.73;3.53;;;8.50;99.90;;;;;;5071322;28;20663;-83
2024/03/23 00:06:40;;;;;;;11.57;5.87;;;8.70;99.90;;;;;;5074351;28;20235;-82
2024/03/23 00:09:07;;;;;;;6.17;3.23;;;8.80;99.90;;;;;;5092603;28;20179;-83
2024/03/23 00:11:37;;;;;;;9.07;4.40;;;9.00;99.90;;;;;;5089417;28;20171;-84
2024/03/23 00:14:07;;;;;;;9.67;4.93;;;8.90;99.90;;;;;;5073289;28;20655;-83
2024/03/23 00:16:34;;;;;;;9.43;3.83;;;9.00;99.90;;;;;;5090711;28;20167;-84
2024/03/23 00:19:02;;;;;;;8.97;3.80;;;9.20;99.90;;;;;;5092248;28;20172;-83
2024/03/23 00:21:29;;;;;;;8.17;3.43;;;9.20;99.90;;;;;;5074519;28;20533;-82
2024/03/23 00:23:56;;;;;;;11.67;3.47;;;9.10;99.90;;;;;;5091845;28;20167;-84
2024/03/23 00:26:22;;;;;;;10.30;3.10;;;9.20;99.90;;;;;;5073749;28;20211;-83
2024/03/23 00:28:50;;;;;;;8.47;3.77;;;9.20;99.90;;;;;;5090207;28;20271;-82
2024/03/23 00:31:16;;;;;;;7.30;3.53;;;9.50;99.90;;;;;;5090705;28;20175;-82
2024/03/23 00:33:43;;;;;;;9.57;4.10;;;9.50;99.90;;;;;;5089584;28;20179;-82
2024/03/23 00:36:10;;;;;;;8.43;3.43;;;9.60;99.90;;;;;;5091941;28;20176;-82
2024/03/23 00:38:37;;;;;;;9.40;3.37;;;9.70;99.90;;;;;;5090468;28;20184;-81
2024/03/23 00:41:03;;;;;;;6.93;3.20;;;9.80;99.90;;;;;;5090965;28;20203;-83
2024/03/23 00:43:30;;;;;;;10.07;3.53;;;9.90;99.90;;;;;;5073597;28;20203;-82
2024/03/23 00:45:56;;;;;;;10.30;3.53;;;9.90;99.90;;;;;;5090825;28;20178;-80
2024/03/23 00:48:23;;;;;;;11.03;3.47;;;9.70;98.50;;;;;;5091804;28;20211;-81
2024/03/23 00:50:49;;;;;;;11.93;4.10;;;9.80;99.80;;;;;;5095866;28;20168;-83
2024/03/23 00:53:16;;;;;;;9.23;3.70;;;9.80;98.00;;;;;;5076997;28;20206;-83
2024/03/23 00:55:42;;;;;;;9.73;3.53;;;9.70;99.50;;;;;;5093759;28;20179;-83
2024/03/23 00:58:08;;;;;;;7.80;3.57;;;9.60;97.90;;;;;;5094348;28;20168;-82
2024/03/23 01:00:34;;;;;;;13.87;4.17;;;9.60;99.90;;;;;;5094028;28;20172;-82
2024/03/23 01:03:00;;;;;;;10.70;4.00;;;9.50;99.40;;;;;;5093818;28;20225;-81
2024/03/23 01:05:26;;;;;;;10.27;4.87;;;9.40;99.90;;;;;;5095695;28;20164;-83
2024/03/23 01:07:52;;;;;;;10.63;4.00;;;9.30;99.90;;;;;;5094001;28;20551;-83
2024/03/23 01:10:17;;;;;;;10.33;3.73;;;9.30;99.90;;;;;;5094126;28;20176;-82
2024/03/23 01:12:43;;;;;;;8.93;3.07;;;9.30;99.90;;;;;;5095303;28;20164;-82
2024/03/23 01:15:09;;;;;;;7.67;3.27;;;9.30;99.90;;;;;;5094221;28;20634;-83
2024/03/23 01:17:34;;;;;;;5.63;2.80;;;9.30;99.90;;;;;;5095533;28;20175;-83
2024/03/23 01:20:00;;;;;;;8.97;3.33;;;9.30;99.90;;;;;;5094902;28;20163;-82
2024/03/23 01:22:26;;;;;;;10.60;3.57;;;9.40;99.90;;;;;;5095325;28;20172;-82
2024/03/23 01:24:51;;;;;;;10.03;3.47;;;9.40;99.90;;;;;;5093466;28;20301;-82
2024/03/23 01:27:18;;;;;;;13.93;4.20;;;9.50;99.90;;;;;;5094541;28;20196;-81
2024/03/23 01:29:44;;;;;;;9.63;4.37;;;9.60;99.90;;;;;;5092130;28;20636;-82
2024/03/23 01:32:09;;;;;;;12.23;3.93;;;9.60;99.90;;;;;;5093090;28;20206;-82
2024/03/23 01:34:35;;;;;;;10.77;4.00;;;9.50;99.90;;;;;;5093642;28;20520;-82
2024/03/23 01:37:01;;;;;;;8.57;3.97;;;9.40;99.90;;;;;;5093045;28;20543;-83
2024/03/23 01:39:26;;;;;;;10.13;4.57;;;9.40;99.90;;;;;;5094315;28;20175;-81
2024/03/23 01:41:52;;;;;;;10.53;4.70;;;9.30;99.90;;;;;;5093280;28;20176;-83
2024/03/23 01:44:18;;;;;;;9.27;4.53;;;9.30;99.90;;;;;;5093519;28;20179;-83
2024/03/23 01:46:44;;;;;;;8.43;4.57;;;9.30;99.90;;;;;;5094787;28;20282;-83
2024/03/23 01:49:10;;;;;;;8.63;5.53;;;9.10;99.90;;;;;;5093533;28;20237;-82
2024/03/23 01:51:37;;;;;;;8.70;5.00;;;9.00;99.90;;;;;;5094652;28;20167;-82
2024/03/23 01:54:03;;;;;;;12.97;5.00;;;9.10;99.90;;;;;;5094778;28;20178;-82
2024/03/23 01:56:36;;;;;;;13.23;6.00;;;9.10;99.90;;;;;;5092533;28;20175;-81
2024/03/23 01:59:05;;;;;;;11.00;5.63;;;9.00;99.90;;;;;;5092275;28;20178;-83
2024/03/23 02:01:32;;;;;;;10.07;5.70;;;8.90;99.90;;;;;;5092573;28;20176;-82
2024/03/23 02:03:58;;;;;;;10.37;6.03;;;8.80;99.90;;;;;;5093130;28;20594;-81
2024/03/23 02:06:27;;;;;;;13.77;6.27;;;8.90;99.90;;;;;;5092598;28;20548;-83
2024/03/23 02:08:54;;;;;;;11.90;5.80;;;9.00;99.90;;;;;;5092524;28;20187;-82
2024/03/23 02:11:20;;;;;;;13.83;6.87;;;9.00;99.90;;;;;;5094203;28;20172;-82
2024/03/23 02:13:46;;;;;;;9.93;5.97;;;9.10;99.90;;;;;;5092293;28;20203;-83
2024/03/23 02:16:13;;;;;;;11.57;6.80;;;9.20;99.90;;;;;;5091152;28;20631;-82
2024/03/23 02:18:39;;;;;;;10.40;6.70;;;9.20;99.90;;;;;;5092752;28;20163;-82
2024/03/23 02:21:04;;;;;;;15.33;6.90;;;9.20;99.90;;;;;;5092868;28;20699;-82
2024/03/23 02:23:30;;;;;;;15.30;7.57;;;9.20;99.90;;;;;;5093707;28;20179;-82
2024/03/23 02:25:56;;;;;;;17.07;8.43;;;9.40;99.90;;;;;;5093734;28;20249;-82
2024/03/23 02:28:22;;;;;;;15.70;8.30;;;9.40;99.90;;;;;;5092149;28;20579;-81
2024/03/23 02:30:51;;;;;;;16.03;8.83;;;9.30;99.90;;;;;;5091793;28;20270;-83
2024/03/23 02:33:18;;;;;;;19.87;9.73;;;9.30;99.90;;;;;;5092555;28;20575;-81
2024/03/23 02:35:44;;;;;;;18.50;9.50;;;9.30;99.90;;;;;;5092098;28;20224;-82
2024/03/23 02:38:10;;;;;;;22.53;10.73;;;9.30;99.90;;;;;;5092589;28;20175;-84
2024/03/23 02:40:36;;;;;;;19.57;10.37;;;9.40;99.90;;;;;;5091261;28;20176;-83
2024/03/23 02:43:03;;;;;;;21.43;10.90;;;9.20;99.90;;;;;;5091956;28;20167;-82
2024/03/23 02:45:29;;;;;;;20.30;10.97;;;9.20;99.90;;;;;;5091228;28;21205;-81
2024/03/23 02:47:55;;;;;;;19.40;10.17;;;9.10;99.90;;;;;;5092957;28;20685;-82
2024/03/23 02:50:21;;;;;;;19.77;10.50;;;9.00;99.90;;;;;;5091854;28;20661;-82
2024/03/23 02:52:47;;;;;;;21.93;11.47;;;9.00;99.90;;;;;;5093257;28;20601;-82
2024/03/23 02:55:14;;;;;;;18.73;11.33;;;9.00;99.90;;;;;;5091300;28;20767;-82
2024/03/23 02:57:39;;;;;;;24.10;12.23;;;8.90;99.90;;;;;;5090987;28;20176;-83
2024/03/23 03:00:07;;;;;;;18.87;11.50;;;8.90;99.90;;;;;;5091039;28;20201;-82
2024/03/23 03:02:33;;;;;;;24.50;12.63;;;8.90;99.90;;;;;;5090717;28;20175;-82
2024/03/23 03:04:59;;;;;;;22.73;12.10;;;8.80;99.90;;;;;;5091940;28;20172;-82
2024/03/23 03:07:24;;;;;;;19.10;12.13;;;8.90;99.90;;;;;;5092932;28;20268;-82
2024/03/23 03:09:50;;;;;;;22.50;11.60;;;8.80;99.90;;;;;;5091651;28;20199;-82
2024/03/23 03:12:17;;;;;;;21.50;12.10;;;8.90;99.90;;;;;;5090993;28;20229;-83
2024/03/23 03:14:43;;;;;;;20.13;12.10;;;9.00;99.90;;;;;;5091476;28;20233;-82
2024/03/23 03:17:08;;;;;;;22.63;11.73;;;9.00;99.90;;;;;;5089766;28;20328;-82
2024/03/23 03:19:34;;;;;;;21.83;11.20;;;9.00;99.90;;;;;;5091881;28;20636;-82
2024/03/23 03:22:00;;;;;;;22.73;10.97;;;9.00;99.90;;;;;;5090863;28;20179;-82
2024/03/23 03:24:26;;;;;;;21.33;10.70;;;9.00;99.90;;;;;;5091525;28;20670;-82
2024/03/23 03:26:51;;;;;;;20.00;10.83;;;9.00;99.90;;;;;;5092681;28;20253;-81
2024/03/23 03:29:17;;;;;;;20.97;10.83;;;9.00;99.90;;;;;;5091273;28;20220;-83
2024/03/23 03:31:43;;;;;;;22.33;11.10;;;9.00;99.90;;;;;;5092846;28;20163;-81
2024/03/23 03:34:09;;;;;;;16.73;10.93;;;9.00;99.90;;;;;;5091515;28;20171;-82
2024/03/23 03:36:35;;;;;;;25.60;11.03;;;9.00;99.90;;;;;;5092508;28;20190;-81
2024/03/23 03:39:03;;;;;;;17.77;10.77;;;9.00;99.90;;;;;;5091444;28;20213;-82
2024/03/23 03:41:28;;;;;;;26.53;11.00;;;9.00;99.90;;;;;;5091033;28;20171;-82
2024/03/23 03:43:55;;;;;;;22.57;11.33;;;9.00;99.90;;;;;;5092885;28;20178;-82
2024/03/23 03:46:20;;;;;;;27.53;12.37;;;9.00;99.90;;;;;;5090780;28;20172;-82
2024/03/23 03:48:48;;;;;;;22.93;10.83;;;9.00;99.90;;;;;;5089097;28;20632;-81
2024/03/23 03:51:14;;;;;;;22.90;11.30;;;9.00;99.90;;;;;;5090967;28;20215;-82
2024/03/23 03:53:40;;;;;;;22.97;11.30;;;8.90;99.90;;;;;;5090697;28;20175;-82
2024/03/23 03:56:05;;;;;;;17.07;11.50;;;8.90;99.90;;;;;;5091136;28;20179;-81
2024/03/23 03:58:31;;;;;;;22.20;11.00;;;8.90;99.90;;;;;;5090235;28;20167;-82
2024/03/23 04:00:57;;;;;;;20.33;11.50;;;8.90;99.90;;;;;;5091952;28;20502;-80
2024/03/23 04:03:22;;;;;;;22.50;12.87;;;8.90;99.90;;;;;;5091849;28;20176;-81
2024/03/23 04:05:54;;;;;;;21.53;11.83;;;8.90;99.90;;;;;;5091318;28;20195;-81
2024/03/23 04:08:21;;;;;;;24.17;12.27;;;8.70;99.90;;;;;;5091995;28;20239;-81
2024/03/23 04:10:46;;;;;;;21.53;11.03;;;8.70;99.90;;;;;;5090472;28;20229;-81
2024/03/23 04:13:13;;;;;;;16.83;9.97;;;8.60;99.90;;;;;;5090981;28;20647;-81
2024/03/23 04:15:39;;;;;;;19.73;9.50;;;8.60;99.90;;;;;;5092716;28;20168;-82
2024/03/23 04:18:05;;;;;;;19.17;8.93;;;8.60;99.90;;;;;;5090827;28;20180;-81
2024/03/23 04:20:32;;;;;;;18.37;8.30;;;8.50;99.90;;;;;;5092098;28;20254;-80
2024/03/23 04:22:58;;;;;;;14.57;8.90;;;8.50;99.90;;;;;;5091052;28;20750;-81
2024/03/23 04:25:24;;;;;;;17.97;7.80;;;8.60;99.90;;;;;;5096404;28;20168;-82
2024/03/23 04:27:49;;;;;;;15.43;7.70;;;8.50;99.90;;;;;;5094235;28;20219;-81
2024/03/23 04:30:16;;;;;;;15.63;7.23;;;8.50;99.90;;;;;;5095171;28;20183;-82
2024/03/23 04:32:42;;;;;;;14.47;7.07;;;8.50;99.90;;;;;;5094774;28;20193;-80
2024/03/23 04:35:10;;;;;;;15.70;6.60;;;8.60;99.90;;;;;;5094990;28;20626;-81
2024/03/23 04:37:37;;;;;;;15.30;7.03;;;8.60;99.90;;;;;;5094292;28;20556;-82
2024/03/23 04:40:03;;;;;;;16.03;7.47;;;8.50;99.90;;;;;;5095904;28;20174;-81
2024/03/23 04:42:31;;;;;;;12.97;6.13;;;8.50;99.90;;;;;;5094255;28;20190;-81
2024/03/23 04:44:57;;;;;;;13.83;6.27;;;8.60;99.90;;;;;;5094694;28;20554;-81
2024/03/23 04:47:23;;;;;;;14.60;6.30;;;8.50;99.90;;;;;;5094303;28;20199;-82
2024/03/23 04:49:49;;;;;;;16.67;7.00;;;8.50;99.90;;;;;;5094599;28;20193;-81
2024/03/23 04:52:15;;;;;;;13.67;6.70;;;8.50;99.90;;;;;;5094142;28;20198;-81
2024/03/23 04:54:41;;;;;;;13.80;7.10;;;8.50;99.90;;;;;;5092854;28;20198;-81
2024/03/23 04:57:07;;;;;;;15.00;6.80;;;8.40;99.90;;;;;;5094294;28;20722;-81
2024/03/23 04:59:33;;;;;;;12.43;6.90;;;8.60;99.90;;;;;;5093379;28;20182;-82
2024/03/23 05:02:00;;;;;;;14.27;6.90;;;8.60;99.90;;;;;;5093946;28;20167;-82
2024/03/23 05:04:26;;;;;;;17.17;7.10;;;8.60;99.90;;;;;;5093877;28;20778;-82
2024/03/23 05:06:52;;;;;;;12.03;6.77;;;8.50;99.90;;;;;;5093507;28;20682;-81
2024/03/23 05:09:17;;;;;;;14.90;7.30;;;8.40;99.90;;;;;;5093849;28;20171;-81
2024/03/23 05:11:43;;;;;;;15.00;7.63;;;8.40;99.90;;;;;;5094417;28;20179;-82
2024/03/23 05:14:09;;;;;;;14.90;7.97;;;8.40;99.90;;;;;;5095148;28;20196;-80
2024/03/23 05:16:35;;;;;;;14.77;7.97;;;8.40;99.90;;;;;;5093636;28;20725;-81
2024/03/23 05:19:00;;;;;;;13.33;7.37;;;8.40;99.90;;;;;;5095137;28;20507;-81
2024/03/23 05:21:30;;;;;;;16.60;7.77;;;8.40;99.90;;;;;;5093544;28;20552;-81
2024/03/23 05:23:55;;;;;;;13.20;8.30;;;8.40;99.90;;;;;;5094829;28;20650;-82
2024/03/23 05:26:22;;;;;;;16.07;7.87;;;8.50;99.90;;;;;;5093570;28;20183;-82
2024/03/23 05:28:48;;;;;;;12.77;7.63;;;8.40;99.90;;;;;;5093517;28;20630;-82
2024/03/23 05:31:26;;;;;;;14.83;7.37;;;8.40;99.90;;;;;;5092995;28;20248;-82
2024/03/23 05:33:52;;;;;;;14.03;7.70;;;8.30;99.90;;;;;;5093164;28;20181;-82
2024/03/23 05:36:18;;;;;;;16.23;7.07;;;8.30;99.90;;;;;;5093488;28;20164;-82
2024/03/23 05:38:44;;;;;;;16.53;6.97;;;8.20;99.90;;;;;;5092487;28;20662;-82
2024/03/23 05:41:10;;;;;;;14.07;5.83;;;8.10;99.90;;;;;;5094600;28;20210;-82
2024/03/23 05:43:35;;;;;;;14.20;6.50;;;8.10;99.90;;;;;;5094946;28;20254;-81
2024/03/23 05:46:02;;;;;;;12.70;5.60;;;8.10;99.90;;;;;;5092998;28;20184;-82
2024/03/23 05:48:30;;;;;;;14.10;5.33;;;8.10;99.90;;;;;;5093489;28;20297;-82
2024/03/23 05:50:55;;;;;;;13.17;5.27;;;8.10;99.90;;;;;;5092929;28;20171;-81
2024/03/23 05:53:21;;;;;;;12.00;4.37;;;8.10;99.90;;;;;;5092593;28;20186;-81
2024/03/23 05:55:49;;;;;;;13.40;4.90;;;8.00;99.90;;;;;;5092786;28;20665;-81
2024/03/23 05:58:16;;;;;;;14.23;4.47;;;8.00;99.90;;;;;;5093104;28;20215;-81
2024/03/23 06:00:43;;;;;;;14.63;4.73;;;8.00;99.90;;;;;;5093119;28;20183;-82
2024/03/23 06:03:10;;;;;;;11.50;4.30;;;8.00;99.90;;;;;;5093388;28;20172;-82
2024/03/23 06:05:36;;;;;;;14.53;4.70;;;8.00;99.90;;;;;;5092401;28;20193;-81
2024/03/23 06:08:02;;;;;;;10.13;3.83;;;8.00;99.90;;;;;;5093111;28;20718;-82
2024/03/23 06:10:28;;;;;;;13.90;4.30;;;8.00;99.90;;;;;;5092223;28;20171;-82
2024/03/23 06:12:54;;;;;;;12.23;3.83;;;8.10;99.90;;;;;;5092843;28;20172;-81
2024/03/23 06:15:20;;;;;;;11.73;4.27;;;8.10;99.90;;;;;;5093051;28;20176;-83
2024/03/23 06:17:46;;;;;;;13.70;4.27;;;8.10;99.90;;;;;;5091697;28;20199;-81
2024/03/23 06:20:12;;;;;;;11.00;3.93;;;8.10;99.90;;;;;;5090727;28;20252;-82
2024/03/23 06:22:38;;;;;;;10.73;4.00;;;8.10;99.90;;;;;;5092669;28;20171;-82
2024/03/23 06:25:04;;;;;;;12.83;4.33;;;8.00;99.90;;;;;;5093356;28;20688;-82
2024/03/23 06:27:31;;;;;;;11.60;3.63;;;8.10;99.90;;;;;;5093257;28;20200;-80
2024/03/23 06:30:00;;;;;;;7.73;2.93;;;8.20;99.90;;;;;;5092503;28;20187;-81
2024/03/23 06:32:28;;;;;;;15.13;3.97;;;8.20;99.90;;;;;;5093729;28;20225;-81
2024/03/23 06:34:55;;;;;;;14.23;3.37;;;8.20;99.90;;;;;;5092132;28;20164;-82
2024/03/23 06:37:20;;;;;;;10.87;3.73;;;8.20;99.90;;;;;;5092875;28;20191;-81
2024/03/23 06:39:46;;;;;;;13.13;3.87;;;8.30;99.90;;;;;;5095960;28;20183;-85
2024/03/23 06:42:12;;;;;;;10.27;3.20;;;8.30;99.90;;;;;;5091791;28;20178;-82
2024/03/23 06:44:39;;;;;;;13.43;3.97;;;8.10;99.90;;;;;;5092299;28;20168;-82
2024/03/23 06:47:05;;;;;;;12.13;3.73;;;8.00;99.90;;;;;;5090996;28;20559;-82
2024/03/23 06:49:30;;;;;;;13.47;3.03;;;8.00;99.90;;;;;;5093694;28;20171;-81
2024/03/23 06:51:56;;;;;;;11.23;3.77;;;8.00;99.90;;;;;;5092674;28;20589;-81
2024/03/23 06:54:22;;;;;;;10.57;4.50;;;8.00;99.90;;;;;;5092976;28;20476;-82
2024/03/23 06:56:47;;;;;;;8.93;3.20;;;8.10;99.90;;;;;;5091508;28;20749;-82
2024/03/23 06:59:13;;;;;;;12.67;3.57;;;8.20;99.90;;;;;;5091040;28;20179;-84
2024/03/23 07:01:39;;;;;;;13.07;3.47;;;8.10;99.90;;;;;;5090614;28;20258;-82
2024/03/23 07:04:04;;;;;;;10.43;3.40;;;8.10;99.90;;;;;;5091481;28;20179;-84
2024/03/23 07:06:31;;;;;;;9.57;2.40;;;7.70;99.90;;;;;;5091501;28;20658;-82
2024/03/23 07:08:57;;;;;;;6.17;2.37;;;7.60;99.90;;;;;;5091473;28;20199;-82
2024/03/23 07:11:23;;;;;;;8.37;2.40;;;7.20;99.90;;;;;;5091350;28;20628;-81
2024/03/23 07:13:56;;;;;;;6.50;2.40;;;7.10;99.90;;;;;;5091505;28;20203;-81
2024/03/23 07:16:22;;;;;;;8.70;2.90;;;7.10;99.90;;;;;;5091193;28;20176;-82
2024/03/23 07:18:50;;;;;;;6.97;3.13;;;7.20;99.90;;;;;;5090401;28;20673;-82
2024/03/23 07:21:15;;;;;;;10.47;3.20;;;7.20;99.90;;;;;;5091768;28;20266;-81
2024/03/23 07:23:44;;;;;;;7.53;3.50;;;7.30;99.90;;;;;;5092788;28;20246;-84
2024/03/23 07:26:11;;;;;;;14.50;3.93;;;7.40;99.90;;;;;;5091557;28;20176;-82
2024/03/23 07:28:38;;;;;;;8.07;3.33;;;7.40;99.90;;;;;;5091511;28;20910;-83
2024/03/23 07:31:10;;;;;;;10.67;3.83;;;7.50;99.90;;;;;;5090924;28;20171;-82
2024/03/23 07:33:41;;;;;;;12.03;3.93;;;7.60;99.90;;;;;;5090967;28;20256;-82
2024/03/23 07:36:07;;;;;;;10.33;4.13;;;7.70;99.90;;;;;;5090337;28;20181;-82
2024/03/23 07:38:32;;;;;;;12.47;3.40;;;7.80;99.90;;;;;;5090712;28;20183;-82
2024/03/23 07:41:09;;;;;;;11.87;3.60;;;7.90;99.90;;;;;;5091563;28;20179;-83
2024/03/23 07:43:36;;;;;;;12.50;4.33;;;8.00;99.90;;;;;;5091373;28;20650;-82
2024/03/23 07:46:03;;;;;;;11.40;4.00;;;8.00;99.90;;;;;;5090500;28;20579;-84
2024/03/23 07:48:29;;;;;;;13.20;3.63;;;8.00;99.90;;;;;;5090523;28;20196;-83
2024/03/23 07:51:04;;;;;;;9.53;3.70;;;8.20;99.90;;;;;;5090645;28;20164;-82
2024/03/23 07:53:31;;;;;;;11.77;3.87;;;8.10;99.90;;;;;;5090490;28;20171;-82
2024/03/23 07:55:59;;;;;;;11.60;3.40;;;8.20;99.90;;;;;;5092017;28;20175;-83
2024/03/23 07:58:26;;;;;;;12.33;4.17;;;8.20;99.90;;;;;;5088824;28;20221;-82
2024/03/23 08:00:52;;;;;;;12.40;4.40;;;8.20;99.90;;;;;;5090878;28;20167;-83
2024/03/23 08:03:18;;;;;;;9.30;3.67;;;8.30;99.90;;;;;;5090708;28;20178;-83
2024/03/23 08:05:44;;;;;;;10.27;3.30;;;8.40;99.90;;;;;;5090525;28;20168;-82
2024/03/23 08:08:10;;;;;;;12.90;4.23;;;8.20;99.90;;;;;;5088865;28;20230;-83
2024/03/23 08:10:56;;;;;;;12.03;3.60;;;8.20;99.90;;;;;;5089656;28;20171;-82
2024/03/23 08:13:22;;;;;;;10.03;3.67;;;8.10;99.90;;;;;;5090036;28;20203;-83
2024/03/23 08:15:48;;;;;;;12.87;3.83;;;8.30;99.90;;;;;;5090634;28;20274;-82
2024/03/23 08:18:15;;;;;;;10.83;3.80;;;8.20;99.90;;;;;;5090940;28;20627;-83
2024/03/23 08:20:41;;;;;;;8.23;3.23;;;8.20;99.90;;;;;;5089082;28;20690;-85
2024/03/23 08:23:07;;;;;;;14.27;3.80;;;8.30;99.90;;;;;;5091782;28;20201;-83
2024/03/23 08:25:34;;;;;;;15.43;3.67;;;8.30;99.90;;;;;;5089427;28;20181;-85
2024/03/23 08:27:59;;;;;;;11.03;3.30;;;8.30;99.90;;;;;;5090473;28;20315;-82
2024/03/23 08:30:25;;;;;;;9.83;3.30;;;8.40;99.90;;;;;;5091748;28;20646;-82
2024/03/23 08:32:51;;;;;;;9.30;2.47;;;8.30;99.90;;;;;;5090470;28;20198;-82
2024/03/23 08:35:17;;;;;;;11.30;3.40;;;8.30;99.90;;;;;;5090669;28;20176;-86
2024/03/23 08:37:43;;;;;;;10.60;3.20;;;8.20;99.90;;;;;;5091608;28;20171;-82
2024/03/23 08:40:09;;;;;;;11.07;3.30;;;8.30;99.90;;;;;;5090818;28;20168;-84
2024/03/23 08:42:35;;;;;;;13.67;4.10;;;8.30;99.90;;;;;;5091885;28;20168;-83
2024/03/23 08:45:01;;;;;;;9.73;3.37;;;8.40;99.90;;;;;;5089932;28;20171;-82
2024/03/23 08:47:26;;;;;;;7.63;3.07;;;8.50;98.80;;;;;;5091848;28;20659;-82
2024/03/23 08:49:52;;;;;;;6.87;2.83;;;8.40;92.80;;;;;;5090353;28;20593;-81
2024/03/23 08:52:18;;;;;;;12.23;2.80;;;8.40;92.00;;;;;;5090544;28;20175;-82
2024/03/23 08:54:44;;;;;;;9.93;2.70;;;8.30;81.10;;;;;;5089732;28;20211;-83
2024/03/23 08:57:09;;;;;;;7.40;2.73;;;8.40;81.80;;;;;;5090743;28;20184;-83
2024/03/23 08:59:37;;;;;;;11.13;3.77;;;8.30;82.60;;;;;;5081977;28;20206;-82
2024/03/23 09:02:03;;;;;;;10.87;3.13;;;8.60;88.90;;;;;;5090334;28;20175;-84
2024/03/23 09:04:28;;;;;;;7.67;2.70;;;8.70;75.10;;;;;;5091750;28;20673;-83
2024/03/23 09:06:54;;;;;;;9.80;2.80;;;8.70;69.70;;;;;;5088856;28;20256;-83
2024/03/23 09:09:20;;;;;;;9.50;2.50;;;8.60;58.70;;;;;;5085613;28;20184;-83
2024/03/23 09:11:45;;;;;;;7.73;2.73;;;8.50;60.80;;;;;;5085061;28;20176;-80
2024/03/23 09:14:11;;;;;;;6.73;2.27;;;8.70;71.60;;;;;;5082684;28;20203;-83
2024/03/23 09:16:37;;;;;;;7.73;3.07;;;8.70;70.60;;;;;;5078265;28;20643;-82
2024/03/23 09:19:03;;;;;;;9.17;3.10;;;8.70;70.50;;;;;;5081448;28;20168;-81
2024/03/23 09:21:28;;;;;;;8.60;2.80;;;8.70;63.10;;;;;;5081998;28;20160;-82
2024/03/23 09:23:54;;;;;;;10.37;3.10;;;8.80;66.10;;;;;;5075666;28;20215;-80
2024/03/23 09:26:20;;;;;;;10.17;3.33;;;8.80;62.20;;;;;;5076835;28;20544;-82
2024/03/23 09:28:48;;;;;;;9.50;2.90;;;8.90;64.00;;;;;;5082951;28;20199;-81
2024/03/23 09:31:15;;;;;;;9.40;3.27;;;9.00;58.40;;;;;;5086047;28;20259;-82
2024/03/23 09:33:41;;;;;;;7.97;3.57;;;9.00;51.00;;;;;;5097219;28;20253;-81
2024/03/23 09:36:08;;;;;;;6.33;2.73;;;9.00;42.10;;;;;;5110818;28;20160;-82
2024/03/23 09:38:34;;;;;;;7.87;3.07;;;9.00;43.00;;;;;;5095292;28;20242;-83
2024/03/23 09:41:00;;;;;;;12.00;4.17;;;9.10;39.10;;;;;;5101178;28;20202;-81
2024/03/23 09:43:26;;;;;;;10.50;3.17;;;9.20;1.00;;;;;;5092793;28;20187;-81
2024/03/23 09:45:53;;;;;;;6.03;2.70;;;9.10;1.00;;;;;;5093344;28;20176;-83
2024/03/23 09:48:18;;;;;;;6.80;2.97;;;9.10;1.00;;;;;;5091682;28;20215;-79
2024/03/23 09:50:45;;;;;;;7.23;3.00;;;9.20;1.00;;;;;;5091903;28;20605;-80
2024/03/23 09:53:12;;;;;;;5.53;2.87;;;9.30;1.00;;;;;;5090840;28;20589;-81
2024/03/23 09:55:40;;;;;;;5.37;3.07;;;9.20;1.00;;;;;;5094801;28;20298;-83
2024/03/23 09:58:05;;;;;;;4.73;2.57;;;9.20;1.00;;;;;;5091161;28;20255;-83
2024/03/23 10:00:33;;;;;;;9.73;3.20;;;9.20;1.00;;;;;;5093789;28;20195;-82
2024/03/23 10:03:01;;;;;;;6.00;2.67;;;9.20;1.00;;;;;;5094170;28;20573;-81
2024/03/23 10:05:28;;;;;;;8.10;2.87;;;9.20;1.00;;;;;;5095228;28;20175;-80
2024/03/23 10:07:54;;;;;;;6.27;3.00;;;9.20;1.00;;;;;;5113249;28;20217;-79
2024/03/23 10:10:23;;;;;;;6.50;2.90;;;9.20;1.00;;;;;;5091124;28;20176;-81
2024/03/23 10:12:53;;;;;;;5.77;2.70;;;9.30;1.00;;;;;;5094406;28;20176;-82
2024/03/23 10:15:27;;;;;;;8.67;3.17;;;9.60;1.00;;;;;;5105750;28;20232;-83
2024/03/23 10:17:53;;;;;;;5.00;2.67;;;9.70;1.00;;;;;;5094721;28;20598;-84
2024/03/23 10:20:22;;;;;;;7.90;2.53;;;9.70;1.00;;;;;;5101982;28;20539;-83
2024/03/23 10:22:48;;;;;;;7.87;2.70;;;9.70;1.00;;;;;;5093974;28;20182;-80
2024/03/23 10:25:15;;;;;;;6.50;2.40;;;9.80;1.00;;;;;;5073324;28;20621;-82
2024/03/23 10:27:43;;;;;;;6.77;2.40;;;9.80;1.00;;;;;;5076080;28;20667;-81
2024/03/23 10:30:14;;;;;;;9.00;2.50;;;9.90;1.00;;;;;;5082915;28;20183;-80
2024/03/23 10:32:40;;;;;;;5.57;1.83;;;9.80;1.00;;;;;;5091634;28;20194;-82
2024/03/23 10:35:22;;;;;;;7.40;2.57;;;9.30;1.00;;;;;;5099504;28;20249;-80
2024/03/23 10:37:51;;;;;;;4.63;1.80;;;9.20;1.00;;;;;;5099750;28;20193;-81
2024/03/23 10:40:18;;;;;;;7.67;2.13;;;9.30;1.00;;;;;;5093804;28;20172;-80
2024/03/23 10:42:44;;;;;;;7.90;1.90;;;9.50;1.00;;;;;;5091906;28;20170;-79
2024/03/23 10:45:10;;;;;;;7.83;2.37;;;9.60;1.00;;;;;;5091935;28;20182;-79
2024/03/23 10:47:37;;;;;;;4.97;1.53;;;9.60;1.00;;;;;;5093675;28;20203;-81
2024/03/23 10:50:06;;;;;;;5.40;1.90;;;9.70;1.00;;;;;;5091815;28;20262;-83
2024/03/23 10:52:35;;;;;;;5.53;1.80;;;9.90;1.00;;;;;;5090285;28;20229;-81
2024/03/23 10:55:06;;;;;;;8.27;2.37;;;10.00;1.00;;;;;;5090570;28;20275;-80
2024/03/23 10:57:43;;;;;;;7.07;2.20;;;9.90;1.00;;;;;;5081871;28;20707;-82
2024/03/23 11:00:10;;;;;;;6.50;2.03;;;9.80;1.00;;;;;;5092209;28;20282;-82
2024/03/23 11:02:36;;;;;;;7.30;1.93;;;9.80;1.00;;;;;;5088598;28;20179;-81
2024/03/23 11:05:02;;;;;;;6.87;1.43;;;9.90;1.00;;;;;;5092846;28;20168;-81
2024/03/23 11:07:33;;;;;;;5.77;2.10;;;10.00;1.00;;;;;;5090240;28;20234;-81
2024/03/23 11:10:01;;;;;;;5.17;1.93;;;10.00;1.00;;;;;;5090482;28;20171;-82
2024/03/23 11:12:28;;;;;;;2.23;1.10;;;10.20;1.00;;;;;;5091416;28;20167;-81
2024/03/23 11:15:05;;;;;;;2.87;1.23;;;10.30;99.90;;;;;;5092273;28;20270;-81
2024/03/23 11:17:31;;;;;;;3.33;1.07;;;10.20;99.90;;;;;;5093207;28;20167;-82
2024/03/23 11:19:58;;;;;;;5.90;1.70;;;10.20;99.90;;;;;;5090912;28;20175;-81
2024/03/23 11:22:53;;;;;;;4.07;1.60;;;10.40;99.90;;;;;;5090193;28;20176;-82
2024/03/23 11:25:26;;;;;;;5.13;1.83;;;10.50;99.90;;;;;;5080302;28;20187;-82
2024/03/23 11:27:53;;;;;;;7.07;1.60;;;10.50;99.90;;;;;;5098313;28;20223;-81
2024/03/23 11:30:21;;;;;;;6.30;2.20;;;10.60;99.90;;;;;;5092084;28;20168;-82
2024/03/23 11:32:49;;;;;;;5.93;1.93;;;10.60;99.90;;;;;;5101353;28;20344;-82
2024/03/23 11:35:34;;;;;;;7.03;1.57;;;10.50;99.90;;;;;;5096646;28;20238;-83
2024/03/23 11:38:13;;;;;;;5.37;1.47;;;10.40;99.90;;;;;;5068981;28;20591;-81
2024/03/23 11:40:47;;;;;;;5.73;1.93;;;10.40;1.00;;;;;;5090453;28;20191;-82
2024/03/23 11:43:15;;;;;;;5.83;1.83;;;10.40;1.00;;;;;;5097457;28;20167;-84
2024/03/23 11:45:52;;;;;;;4.80;1.60;;;10.20;99.90;;;;;;5110715;28;20635;-83
2024/03/23 11:48:20;;;;;;;6.83;1.93;;;10.20;1.00;;;;;;5094605;28;20750;-81
2024/03/23 11:50:47;;;;;;;5.47;1.93;;;10.30;1.00;;;;;;5091110;28;20640;-83
2024/03/23 11:53:15;;;;;;;4.47;1.80;;;10.40;1.00;;;;;;5090571;28;20187;-84
2024/03/23 11:55:49;;;;;;;5.80;2.03;;;10.30;1.00;;;;;;5090370;28;20172;-83
2024/03/23 11:58:19;;;;;;;3.77;1.30;;;10.20;1.00;;;;;;5100370;28;20171;-83
2024/03/23 12:01:02;;;;;;;5.80;1.63;;;10.10;1.00;;;;;;5111162;28;20232;-83
2024/03/23 12:03:29;;;;;;;4.63;1.70;;;10.00;1.00;;;;;;5110388;28;20170;-86
2024/03/23 12:06:05;;;;;;;3.90;1.23;;;10.10;1.00;;;;;;5091821;28;20159;-82
2024/03/23 12:08:35;;;;;;;3.47;1.33;;;9.90;99.90;;;;;;5087795;28;20214;-84
2024/03/23 12:11:15;;;;;;;6.50;2.00;;;10.00;1.00;;;;;;5099938;28;20175;-83
2024/03/23 12:13:50;;;;;;;2.53;1.40;;;10.10;1.00;;;;;;5096029;28;20549;-83
2024/03/23 12:16:17;;;;;;;3.17;1.43;;;10.10;99.90;;;;;;5102371;28;20265;-82
2024/03/23 12:18:45;;;;;;;6.77;1.60;;;10.00;99.90;;;;;;5091564;28;20226;-84
2024/03/23 12:21:11;;;;;;;4.33;1.50;;;9.90;1.00;;;;;;5087848;28;20172;-83
2024/03/23 12:23:40;;;;;;;2.60;1.10;;;9.60;1.00;;;;;;5092387;28;20262;-83
2024/03/23 12:26:06;;;;;;;3.83;1.33;;;9.20;1.00;;;;;;5092612;28;20175;-83
2024/03/23 12:28:32;;;;;;;2.77;1.00;;;9.00;1.00;;;;;;5098123;28;20749;-84
2024/03/23 12:30:58;;;;;;;5.33;1.33;;;9.10;1.00;;;;;;5097103;28;20176;-83
2024/03/23 12:33:24;;;;;;;6.63;1.53;;;9.20;1.00;;;;;;5090531;28;20256;-84
2024/03/23 12:35:53;;;;;;;4.07;1.30;;;9.40;1.00;;;;;;5093791;28;20188;-83
2024/03/23 12:38:19;;;;;;;3.80;1.40;;;9.60;1.00;;;;;;5090433;28;20164;-82
2024/03/23 12:40:50;;;;;;;5.90;1.97;;;9.80;1.00;;;;;;5090269;28;20711;-84
2024/03/23 12:43:16;;;;;;;4.93;1.50;;;9.90;1.00;;;;;;5092760;28;20588;-83
2024/03/23 12:45:49;;;;;;;5.73;1.77;;;10.10;1.00;;;;;;5088719;28;20187;-82
2024/03/23 12:48:15;;;;;;;6.03;2.00;;;10.40;1.00;;;;;;5100830;28;20256;-83
2024/03/23 12:50:41;;;;;;;5.83;1.57;;;10.50;99.90;;;;;;5093215;28;20172;-82